map of WTN home
WTN - Airport
Location
City:  Waddington, Lincolnshire, England, United Kingdom
Name:RAF Waddington
ICAO:EGXW
IATA:WTN

Details
Type:Airport (Aerodrome, Airfield)
Use:Military, International (customs port of entry)
Latitude:5309'58"N (53.166167)
Longitude:031'26"W (-0.523810)
Datum:WGS 1984
Elevation:231 ft (70 m)
Variation:0.45W (WMM2015v2 magnetic declination)
0.20 annual change
Runways:1
Longest:9000 × 200 ft (2743 × 61 m), paved

Time
Time Zone:UTC+0 (DST+1)
Local Time:

Weather
METAR:EGXW 041350Z 28011KT 9999 SCT027 09/03 Q1014 BLU NOSIG
TAF:EGXW 041339Z 0415/0509 26014KT 9999 SCT030 PROB40 0502/0509 0200 FZFG VV///

Related Locations
Nearby:
Farthest:NZBA: 11788 mi / 18970 km
Balclutha, OTA, NZ

Find:

   beyond  
but within

Other Information
Maps:
NOTAMs:
Links:
Sources:

  
  • flag of United Kingdom
  • flag of England
  • flag of Lincolnshire
  • flag of Royal Air Force
  

Airport Diagram

Airport diagram for WTN

Larger airport diagram (OBSOLETE) from NGA

Sectional Chart

Flight Planning
at skyvector.com

Satellite Image

Google Maps Satellite view

 

Copyright © 2004-2019 Karl L. Swartz. All rights reserved.
The Great Circle Mapper name and logo are trademarks of the Great Circle Mapper.
All other trademarks mentioned herein belong to their respective owners.
Please see credits for attibutions and further copyright information.

  Follow gcmap on Facebook Follow gcmap on Twitter GCmap on LinkedIn

hCard Microformat

Geo Microformat